Time;durP1;ratioP1;P1;durP2;ratioP2;P2;SDS_P1;SDS_P2;PMS_P1;PMS_P2;Temp;Humidity;BMP_temperature;BMP_pressure;BME280_temperature;BME280_humidity;BME280_pressure;Samples;Min_cycle;Max_cycle;Signal;HPM_P1;HPM_P2
2023/05/06 00:00:06;;;;;;;0.70;0.40;;;15.90;99.90;;;;;;5113231;28;20420;-64
2023/05/06 00:02:33;;;;;;;0.70;0.50;;;15.80;99.90;;;;;;5114563;28;20724;-64
2023/05/06 00:05:02;;;;;;;1.20;0.50;;;15.70;99.90;;;;;;5114641;28;20426;-64
2023/05/06 00:07:29;;;;;;;0.90;0.40;;;15.80;99.90;;;;;;5112150;28;20442;-64
2023/05/06 00:09:56;;;;;;;0.80;0.40;;;15.80;99.90;;;;;;5113120;28;20435;-64
2023/05/06 00:12:23;;;;;;;0.90;0.50;;;15.80;99.90;;;;;;5113915;28;20488;-64
2023/05/06 00:14:51;;;;;;;0.60;0.40;;;15.80;99.90;;;;;;5113769;28;20472;-65
2023/05/06 00:17:18;;;;;;;2.30;0.40;;;15.80;99.90;;;;;;5113055;28;20432;-64
2023/05/06 00:19:45;;;;;;;0.80;0.40;;;15.80;99.90;;;;;;5111641;28;20827;-65
2023/05/06 00:22:12;;;;;;;0.70;0.40;;;15.80;99.90;;;;;;5112420;28;20533;-63
2023/05/06 00:24:39;;;;;;;0.70;0.40;;;15.80;99.90;;;;;;5112562;28;20733;-63
2023/05/06 00:27:06;;;;;;;0.80;0.45;;;15.70;99.90;;;;;;5113216;28;20416;-63
2023/05/06 00:29:42;;;;;;;1.10;0.40;;;15.70;99.90;;;;;;5113954;28;20793;-64
2023/05/06 00:32:10;;;;;;;0.50;0.40;;;15.80;99.90;;;;;;5113711;28;20473;-63
2023/05/06 00:34:37;;;;;;;0.70;0.50;;;15.90;99.90;;;;;;5113557;28;20511;-63
2023/05/06 00:37:04;;;;;;;0.70;0.40;;;15.90;99.90;;;;;;5113674;28;20473;-62
2023/05/06 00:39:32;;;;;;;0.70;0.40;;;16.00;99.90;;;;;;5113858;28;20417;-63
2023/05/06 00:42:01;;;;;;;0.70;0.40;;;15.90;99.90;;;;;;5114227;28;20510;-64
2023/05/06 00:44:28;;;;;;;0.70;0.43;;;15.90;99.90;;;;;;5113960;28;20473;-64
2023/05/06 00:46:55;;;;;;;0.52;0.40;;;15.70;99.90;;;;;;5112526;28;20485;-64
2023/05/06 00:49:24;;;;;;;1.70;0.40;;;15.60;99.90;;;;;;5111550;28;20675;-64
2023/05/06 00:51:52;;;;;;;1.10;0.50;;;15.60;99.90;;;;;;5112285;28;20420;-63
2023/05/06 00:54:20;;;;;;;0.80;0.50;;;15.50;99.90;;;;;;5113003;28;20420;-64
2023/05/06 00:56:47;;;;;;;1.00;0.40;;;15.50;99.90;;;;;;5112198;28;20788;-64
2023/05/06 00:59:14;;;;;;;1.00;0.50;;;15.50;99.90;;;;;;5116343;28;20476;-64
2023/05/06 01:01:41;;;;;;;0.80;0.50;;;15.50;99.90;;;;;;5116612;28;20428;-63
2023/05/06 01:04:09;;;;;;;0.98;0.50;;;15.60;99.90;;;;;;5117710;28;20431;-63
2023/05/06 01:06:43;;;;;;;0.80;0.40;;;15.60;99.90;;;;;;5116855;28;20423;-64
2023/05/06 01:09:19;;;;;;;1.10;0.77;;;15.60;99.90;;;;;;5116875;28;20436;-63
2023/05/06 01:11:49;;;;;;;0.70;0.50;;;15.50;99.90;;;;;;5117375;28;20469;-64
2023/05/06 01:14:24;;;;;;;0.90;0.60;;;15.50;99.90;;;;;;5116278;28;20863;-64
2023/05/06 01:16:55;;;;;;;0.80;0.60;;;15.40;99.90;;;;;;5117104;28;20467;-64
2023/05/06 01:19:36;;;;;;;1.77;0.50;;;15.30;99.90;;;;;;5117462;28;20764;-64
2023/05/06 01:22:06;;;;;;;0.70;0.50;;;15.30;99.90;;;;;;5116479;28;20420;-63
2023/05/06 01:24:38;;;;;;;1.00;0.50;;;15.30;99.90;;;;;;5116430;28;20836;-64
2023/05/06 01:27:06;;;;;;;0.70;0.50;;;15.30;99.90;;;;;;5116300;28;20507;-63
2023/05/06 01:29:35;;;;;;;0.90;0.50;;;15.30;99.90;;;;;;5116299;28;20428;-64
2023/05/06 01:32:11;;;;;;;1.10;0.52;;;15.30;99.90;;;;;;5116753;28;20420;-64
2023/05/06 01:34:45;;;;;;;0.80;0.50;;;15.30;99.90;;;;;;5116493;28;20417;-64
2023/05/06 01:37:18;;;;;;;0.80;0.60;;;15.30;99.90;;;;;;5116548;28;20405;-64
2023/05/06 01:39:47;;;;;;;0.70;0.50;;;15.30;99.90;;;;;;5116700;28;20416;-64
2023/05/06 01:42:16;;;;;;;1.00;0.60;;;15.20;99.90;;;;;;5117183;28;20507;-63
2023/05/06 01:44:44;;;;;;;1.50;0.60;;;15.10;99.90;;;;;;5116623;28;20462;-65
2023/05/06 01:47:12;;;;;;;0.80;0.50;;;15.10;99.90;;;;;;5116859;28;20863;-64
2023/05/06 01:49:40;;;;;;;2.10;0.60;;;15.10;99.90;;;;;;5116561;28;20432;-65
2023/05/06 01:52:07;;;;;;;0.93;0.50;;;15.20;99.90;;;;;;5116074;28;20416;-64
2023/05/06 01:54:34;;;;;;;0.60;0.50;;;15.30;99.90;;;;;;5116462;28;20416;-65
2023/05/06 01:57:02;;;;;;;1.10;0.50;;;15.30;99.90;;;;;;5116079;28;20428;-64
2023/05/06 01:59:29;;;;;;;0.80;0.50;;;15.40;99.90;;;;;;5117196;28;20782;-65
2023/05/06 02:01:56;;;;;;;1.20;0.40;;;15.40;99.90;;;;;;5116045;28;20712;-64
2023/05/06 02:04:23;;;;;;;0.70;0.50;;;15.50;99.90;;;;;;5116274;28;20415;-65
2023/05/06 02:06:50;;;;;;;0.90;0.50;;;15.50;99.90;;;;;;5116342;28;20416;-66
2023/05/06 02:09:17;;;;;;;0.90;0.50;;;15.50;99.90;;;;;;5115138;28;20432;-64
2023/05/06 02:11:45;;;;;;;0.87;0.50;;;15.50;99.90;;;;;;5115165;28;20447;-65
2023/05/06 02:14:13;;;;;;;1.00;0.70;;;15.50;99.90;;;;;;5113847;28;20843;-64
2023/05/06 02:16:40;;;;;;;1.60;0.60;;;15.40;99.90;;;;;;5114570;28;20419;-65
2023/05/06 02:19:07;;;;;;;1.20;0.50;;;15.20;99.90;;;;;;5116070;28;20420;-64
2023/05/06 02:21:34;;;;;;;1.30;0.60;;;15.10;99.90;;;;;;5115756;28;20692;-65
2023/05/06 02:24:01;;;;;;;0.70;0.50;;;15.10;99.90;;;;;;5115429;28;20424;-65
2023/05/06 02:26:28;;;;;;;0.70;0.50;;;15.10;99.90;;;;;;5115826;28;20420;-65
2023/05/06 02:28:55;;;;;;;1.10;0.57;;;15.10;99.90;;;;;;5115818;28;20497;-65
2023/05/06 02:31:23;;;;;;;0.90;0.60;;;15.10;99.90;;;;;;5115534;28;20420;-65
2023/05/06 02:33:50;;;;;;;0.80;0.50;;;15.20;99.90;;;;;;5115145;28;20855;-65
2023/05/06 02:36:17;;;;;;;0.80;0.60;;;15.20;99.90;;;;;;5115425;28;20512;-65
2023/05/06 02:38:44;;;;;;;0.80;0.60;;;15.20;99.90;;;;;;5113854;28;20484;-65
2023/05/06 02:41:11;;;;;;;1.50;0.63;;;15.10;99.90;;;;;;5114417;28;20705;-65
2023/05/06 02:43:38;;;;;;;1.50;0.60;;;15.10;99.90;;;;;;5115185;28;20477;-65
2023/05/06 02:46:05;;;;;;;0.80;0.60;;;15.00;99.90;;;;;;5115422;28;20469;-65
2023/05/06 02:48:34;;;;;;;0.88;0.60;;;15.00;99.90;;;;;;5112438;28;20709;-65
2023/05/06 02:51:01;;;;;;;1.20;0.60;;;14.90;99.90;;;;;;5113808;28;20416;-65
2023/05/06 02:53:28;;;;;;;0.90;0.60;;;15.00;99.90;;;;;;5114519;28;20480;-66
2023/05/06 02:55:55;;;;;;;0.70;0.60;;;15.10;99.90;;;;;;5114690;28;20447;-66
2023/05/06 02:58:22;;;;;;;1.20;0.68;;;15.00;99.90;;;;;;5115093;28;20433;-65
2023/05/06 03:00:49;;;;;;;2.40;0.60;;;15.00;99.90;;;;;;5114334;28;20412;-64
2023/05/06 03:03:16;;;;;;;1.70;0.60;;;15.00;99.90;;;;;;5114798;28;20450;-65
2023/05/06 03:05:44;;;;;;;1.23;0.60;;;15.10;99.90;;;;;;5114349;28;20420;-65
2023/05/06 03:08:11;;;;;;;1.70;0.60;;;15.20;99.90;;;;;;5114430;28;20419;-65
2023/05/06 03:10:38;;;;;;;0.90;0.70;;;15.20;99.90;;;;;;5114257;28;20428;-65
2023/05/06 03:13:05;;;;;;;1.10;0.60;;;15.20;99.90;;;;;;5113708;28;20423;-66
2023/05/06 03:15:32;;;;;;;0.80;0.50;;;15.30;99.90;;;;;;5114093;28;20417;-66
2023/05/06 03:17:59;;;;;;;0.80;0.60;;;15.30;99.90;;;;;;5113189;28;20493;-66
2023/05/06 03:20:27;;;;;;;1.00;0.60;;;15.40;99.90;;;;;;5113094;28;20469;-66
2023/05/06 03:22:56;;;;;;;0.93;0.55;;;15.40;99.90;;;;;;5114142;28;20456;-65
2023/05/06 03:25:23;;;;;;;0.80;0.60;;;15.40;99.90;;;;;;5114433;28;20430;-65
2023/05/06 03:27:50;;;;;;;1.02;0.60;;;15.30;99.90;;;;;;5114037;28;20428;-65
2023/05/06 03:30:17;;;;;;;1.00;0.60;;;15.20;99.90;;;;;;5114351;28;20432;-66
2023/05/06 03:32:44;;;;;;;1.50;0.65;;;15.10;99.90;;;;;;5114476;28;20855;-66
2023/05/06 03:35:11;;;;;;;1.90;0.57;;;14.90;99.90;;;;;;5114636;28;20864;-66
2023/05/06 03:37:38;;;;;;;1.30;0.60;;;14.90;99.90;;;;;;5114372;28;20451;-66
2023/05/06 03:40:09;;;;;;;1.00;0.60;;;14.90;99.90;;;;;;5114119;28;20423;-66
2023/05/06 03:42:36;;;;;;;1.10;0.70;;;14.90;99.90;;;;;;5114836;28;20450;-67
2023/05/06 03:45:03;;;;;;;0.63;0.50;;;14.90;99.90;;;;;;5114550;28;20766;-66
2023/05/06 03:47:30;;;;;;;0.70;0.60;;;15.00;99.90;;;;;;5114628;28;20518;-66
2023/05/06 03:49:57;;;;;;;0.82;0.60;;;15.10;99.90;;;;;;5114275;28;20481;-66
2023/05/06 03:52:25;;;;;;;2.10;0.60;;;15.10;99.90;;;;;;5114167;28;20444;-66
2023/05/06 03:54:52;;;;;;;0.80;0.60;;;15.10;99.90;;;;;;5114784;28;20820;-66
2023/05/06 03:57:20;;;;;;;0.70;0.50;;;15.10;99.90;;;;;;5114894;28;20424;-66
2023/05/06 03:59:47;;;;;;;0.90;0.60;;;15.10;99.90;;;;;;5114251;28;20416;-66
2023/05/06 04:02:14;;;;;;;0.90;0.50;;;15.00;99.90;;;;;;5114007;28;20431;-66
2023/05/06 04:04:41;;;;;;;1.25;0.60;;;14.90;99.90;;;;;;5114700;28;20523;-66
2023/05/06 04:07:08;;;;;;;0.90;0.60;;;14.80;99.90;;;;;;5113914;28;20472;-67
2023/05/06 04:09:35;;;;;;;0.75;0.50;;;14.80;99.90;;;;;;5112942;28;20433;-67
2023/05/06 04:12:03;;;;;;;1.00;0.60;;;14.70;99.90;;;;;;5113597;28;20416;-67
2023/05/06 04:14:32;;;;;;;1.10;0.60;;;14.70;99.90;;;;;;5113251;28;20435;-63
2023/05/06 04:16:59;;;;;;;1.50;0.60;;;14.60;99.90;;;;;;5111499;28;20416;-66
2023/05/06 04:19:26;;;;;;;0.90;0.60;;;14.60;99.90;;;;;;5113568;28;20442;-66
2023/05/06 04:21:53;;;;;;;0.83;0.60;;;14.60;99.90;;;;;;5113959;28;20439;-67
2023/05/06 04:24:20;;;;;;;0.87;0.57;;;14.60;99.90;;;;;;5113716;28;20437;-67
2023/05/06 04:26:47;;;;;;;0.90;0.50;;;14.60;99.90;;;;;;5113859;28;20423;-68
2023/05/06 04:29:14;;;;;;;1.00;0.60;;;14.60;99.90;;;;;;5113788;28;20465;-66
2023/05/06 04:31:42;;;;;;;1.50;0.60;;;14.60;99.90;;;;;;5114221;28;20474;-67
2023/05/06 04:34:10;;;;;;;0.70;0.60;;;14.60;99.90;;;;;;5118321;28;20423;-64
2023/05/06 04:36:37;;;;;;;1.60;0.50;;;14.60;99.90;;;;;;5118471;28;20518;-65
2023/05/06 04:39:05;;;;;;;1.10;0.70;;;14.60;99.90;;;;;;5117818;28;20531;-64
2023/05/06 04:41:32;;;;;;;1.27;0.60;;;14.60;99.90;;;;;;5117668;28;20514;-65
2023/05/06 04:44:00;;;;;;;0.80;0.60;;;14.60;99.90;;;;;;5117563;28;20439;-64
2023/05/06 04:46:27;;;;;;;1.10;0.57;;;14.50;99.90;;;;;;5117981;28;20495;-66
2023/05/06 04:48:57;;;;;;;1.60;0.60;;;14.40;99.90;;;;;;5118233;28;20782;-65
2023/05/06 04:51:23;;;;;;;1.25;0.70;;;14.40;99.90;;;;;;5117241;28;20643;-66
2023/05/06 04:53:51;;;;;;;0.80;0.60;;;14.40;99.90;;;;;;5117912;28;20413;-65
2023/05/06 04:56:18;;;;;;;1.00;0.70;;;14.40;99.90;;;;;;5117686;28;20435;-65
2023/05/06 04:58:45;;;;;;;1.55;0.70;;;14.30;99.90;;;;;;5118202;28;20420;-65
2023/05/06 05:01:12;;;;;;;1.50;0.80;;;14.20;99.90;;;;;;5116675;28;20420;-66
2023/05/06 05:03:39;;;;;;;1.13;0.80;;;14.10;99.90;;;;;;5117605;28;20420;-64
2023/05/06 05:06:08;;;;;;;1.60;0.70;;;14.10;99.90;;;;;;5118174;28;20410;-63
2023/05/06 05:08:35;;;;;;;1.30;0.63;;;14.10;99.90;;;;;;5117430;28;20506;-64
2023/05/06 05:11:02;;;;;;;1.20;0.80;;;14.10;99.90;;;;;;5116112;28;20728;-66
2023/05/06 05:13:29;;;;;;;1.65;0.70;;;14.20;99.90;;;;;;5117108;28;20420;-65
2023/05/06 05:15:56;;;;;;;1.50;0.70;;;14.30;99.90;;;;;;5115835;28;20916;-65
2023/05/06 05:18:23;;;;;;;1.00;0.73;;;14.30;99.90;;;;;;5116701;28;20427;-65
2023/05/06 05:20:51;;;;;;;1.30;0.70;;;14.40;99.90;;;;;;5117456;28;20762;-65
2023/05/06 05:23:19;;;;;;;1.15;0.75;;;14.40;99.90;;;;;;5117536;28;20489;-65
2023/05/06 05:25:46;;;;;;;1.38;0.80;;;14.40;99.90;;;;;;5116297;28;20483;-66
2023/05/06 05:28:13;;;;;;;1.40;0.80;;;14.50;99.90;;;;;;5113936;28;20436;-65
2023/05/06 05:30:40;;;;;;;1.30;0.70;;;14.50;99.90;;;;;;5115163;28;20851;-66
2023/05/06 05:33:10;;;;;;;0.90;0.70;;;14.50;99.90;;;;;;5117693;28;20432;-66
2023/05/06 05:35:37;;;;;;;1.03;0.70;;;14.50;99.90;;;;;;5116064;28;20869;-65
2023/05/06 05:38:04;;;;;;;1.30;0.70;;;14.50;99.90;;;;;;5116693;28;20473;-63
2023/05/06 05:40:32;;;;;;;1.60;0.70;;;14.60;99.90;;;;;;5116293;28;20412;-63
2023/05/06 05:42:59;;;;;;;1.10;0.70;;;14.60;99.90;;;;;;5116203;28;20443;-62
2023/05/06 05:45:26;;;;;;;0.95;0.70;;;14.60;99.90;;;;;;5115178;28;20424;-62
2023/05/06 05:47:53;;;;;;;1.00;0.88;;;14.60;99.90;;;;;;5115627;28;20420;-63
2023/05/06 05:50:21;;;;;;;1.20;0.70;;;14.60;99.90;;;;;;5114339;28;20743;-63
2023/05/06 05:52:48;;;;;;;0.80;0.70;;;14.70;99.90;;;;;;5116010;28;20428;-64
2023/05/06 05:55:15;;;;;;;0.90;0.70;;;14.80;99.90;;;;;;5115729;28;20428;-63
2023/05/06 05:57:43;;;;;;;0.90;0.70;;;14.90;99.90;;;;;;5114396;28;20794;-63
2023/05/06 06:00:11;;;;;;;2.30;0.70;;;14.90;99.90;;;;;;5112111;28;20417;-63
2023/05/06 06:02:38;;;;;;;1.00;0.80;;;14.90;99.90;;;;;;5113309;28;20842;-63
2023/05/06 06:05:06;;;;;;;1.00;0.77;;;15.00;99.90;;;;;;5112601;28;20416;-63
2023/05/06 06:07:33;;;;;;;1.00;0.70;;;15.00;99.90;;;;;;5114152;28;20412;-64
2023/05/06 06:10:00;;;;;;;1.03;0.80;;;15.00;99.90;;;;;;5113543;28;20420;-63
2023/05/06 06:12:27;;;;;;;1.10;0.70;;;15.10;99.90;;;;;;5114464;28;20766;-63
2023/05/06 06:14:55;;;;;;;0.90;0.65;;;15.20;99.90;;;;;;5114730;28;20511;-64
2023/05/06 06:17:22;;;;;;;0.85;0.60;;;15.30;99.90;;;;;;5115739;28;20496;-64
2023/05/06 06:19:50;;;;;;;1.00;0.60;;;15.30;99.90;;;;;;5110534;28;20412;-63
2023/05/06 06:22:17;;;;;;;0.80;0.60;;;15.40;99.90;;;;;;5095633;28;20524;-63
2023/05/06 06:24:44;;;;;;;0.90;0.60;;;15.50;99.90;;;;;;5109584;28;20477;-61
2023/05/06 06:27:11;;;;;;;1.40;0.70;;;15.60;99.90;;;;;;5114448;28;20481;-62
2023/05/06 06:29:38;;;;;;;1.20;0.60;;;15.60;99.90;;;;;;5111724;28;20920;-63
2023/05/06 06:32:06;;;;;;;1.50;0.60;;;15.70;99.90;;;;;;5112645;28;20471;-64
2023/05/06 06:34:33;;;;;;;1.98;0.60;;;15.70;99.90;;;;;;5113070;28;20420;-64
2023/05/06 06:37:00;;;;;;;0.80;0.57;;;15.70;99.90;;;;;;5111940;28;20435;-64
2023/05/06 06:39:28;;;;;;;1.23;0.40;;;15.70;99.90;;;;;;5112495;28;20517;-64
2023/05/06 06:41:57;;;;;;;0.70;0.40;;;15.80;99.90;;;;;;5113349;28;20743;-64
2023/05/06 06:44:24;;;;;;;0.63;0.32;;;15.90;99.90;;;;;;5113539;28;20950;-64
2023/05/06 06:46:51;;;;;;;1.90;0.40;;;16.10;99.90;;;;;;5112855;28;20489;-64
2023/05/06 06:49:19;;;;;;;0.80;0.40;;;16.40;99.90;;;;;;5113244;28;20501;-65
2023/05/06 06:51:47;;;;;;;0.93;0.30;;;16.50;99.90;;;;;;5113201;28;20447;-64
2023/05/06 06:54:14;;;;;;;0.68;0.40;;;16.60;99.90;;;;;;5113397;28;20458;-64
2023/05/06 06:56:41;;;;;;;0.50;0.30;;;16.70;99.90;;;;;;5112647;28;20489;-63
2023/05/06 06:59:08;;;;;;;0.90;0.38;;;16.60;99.90;;;;;;5112738;28;20428;-63
2023/05/06 07:01:35;;;;;;;0.50;0.40;;;16.70;99.90;;;;;;5114319;28;20847;-63
2023/05/06 07:04:02;;;;;;;1.30;0.40;;;16.80;99.90;;;;;;5111329;28;20740;-65
2023/05/06 07:06:30;;;;;;;0.70;0.40;;;16.90;99.90;;;;;;5111701;28;20516;-64
2023/05/06 07:08:57;;;;;;;0.80;0.38;;;16.90;99.90;;;;;;5110293;28;20500;-63
2023/05/06 07:11:24;;;;;;;0.70;0.40;;;17.00;99.90;;;;;;5111803;28;20852;-64
2023/05/06 07:13:51;;;;;;;0.60;0.38;;;17.00;99.90;;;;;;5106838;28;20502;-64
2023/05/06 07:16:18;;;;;;;0.50;0.38;;;16.90;99.90;;;;;;5106341;28;20455;-68
2023/05/06 07:18:46;;;;;;;1.08;0.40;;;16.90;99.90;;;;;;5112350;28;20827;-69
2023/05/06 07:21:13;;;;;;;0.50;0.30;;;16.80;99.90;;;;;;5097446;28;20432;-66
2023/05/06 07:23:42;;;;;;;0.70;0.40;;;16.80;99.90;;;;;;5108081;28;20434;-65
2023/05/06 07:26:09;;;;;;;0.50;0.30;;;17.00;99.90;;;;;;5102230;28;20429;-67
2023/05/06 07:28:36;;;;;;;0.60;0.35;;;17.00;99.90;;;;;;5086640;28;20483;-68
2023/05/06 07:31:03;;;;;;;0.50;0.30;;;17.20;99.90;;;;;;5088428;28;20878;-66
2023/05/06 07:33:30;;;;;;;0.50;0.30;;;17.30;99.90;;;;;;5088903;28;20434;-64
2023/05/06 07:35:57;;;;;;;0.57;0.30;;;17.50;99.90;;;;;;5087994;28;20846;-66
2023/05/06 07:38:24;;;;;;;0.50;0.30;;;17.50;99.90;;;;;;5088093;28;20453;-65
2023/05/06 07:40:55;;;;;;;1.00;0.30;;;17.70;99.90;;;;;;5089149;28;20427;-66
2023/05/06 07:43:23;;;;;;;0.90;0.30;;;17.80;99.90;;;;;;5107589;28;20440;-66
2023/05/06 07:45:50;;;;;;;0.80;0.30;;;17.90;99.90;;;;;;5103876;28;20463;-65
2023/05/06 07:48:18;;;;;;;0.50;0.30;;;17.80;99.90;;;;;;5088266;28;20729;-66
2023/05/06 07:50:45;;;;;;;0.60;0.30;;;17.90;99.90;;;;;;5100714;28;20712;-64
2023/05/06 07:53:12;;;;;;;0.50;0.30;;;18.20;99.90;;;;;;5105904;28;20435;-65
2023/05/06 07:55:39;;;;;;;1.00;0.40;;;18.50;99.90;;;;;;5106732;28;20439;-65
2023/05/06 07:58:08;;;;;;;0.77;0.40;;;18.50;99.90;;;;;;5101010;28;20494;-65
2023/05/06 08:00:35;;;;;;;0.70;0.40;;;18.50;99.90;;;;;;5100357;28;20428;-63
2023/05/06 08:03:02;;;;;;;0.80;0.40;;;18.50;99.90;;;;;;5108556;28;20431;-63
2023/05/06 08:05:30;;;;;;;0.70;0.40;;;18.40;99.90;;;;;;5100594;28;20458;-64
2023/05/06 08:07:57;;;;;;;1.50;0.70;;;18.40;99.90;;;;;;5104763;28;20477;-65
2023/05/06 08:10:24;;;;;;;0.80;0.40;;;18.30;99.90;;;;;;5099999;28;20466;-64
2023/05/06 08:12:51;;;;;;;0.80;0.40;;;18.10;99.90;;;;;;5110770;28;20432;-63
2023/05/06 08:15:19;;;;;;;0.45;0.30;;;18.20;99.90;;;;;;5106240;28;20421;-65
2023/05/06 08:17:47;;;;;;;0.60;0.30;;;18.10;99.90;;;;;;5107743;28;20441;-60
2023/05/06 08:20:14;;;;;;;1.10;0.40;;;18.00;99.90;;;;;;5102297;28;20481;-64
2023/05/06 08:22:41;;;;;;;0.88;0.40;;;18.20;99.90;;;;;;5114275;28;20444;-63
2023/05/06 08:25:08;;;;;;;0.50;0.40;;;18.40;99.90;;;;;;5108766;28;20431;-63
2023/05/06 08:27:35;;;;;;;0.70;0.30;;;18.70;99.90;;;;;;5112452;28;20436;-64
2023/05/06 08:30:02;;;;;;;1.20;0.30;;;18.90;99.90;;;;;;5108451;28;20430;-63
2023/05/06 08:32:31;;;;;;;0.88;0.40;;;19.00;99.90;;;;;;5105285;28;20767;-64
2023/05/06 08:35:04;;;;;;;0.80;0.30;;;19.00;99.90;;;;;;5102359;28;20443;-64
2023/05/06 08:37:31;;;;;;;0.85;0.30;;;19.10;99.90;;;;;;5109439;28;20439;-64
2023/05/06 08:39:58;;;;;;;0.50;0.30;;;19.30;99.90;;;;;;5108785;28;20435;-64
2023/05/06 08:42:25;;;;;;;0.50;0.30;;;19.20;99.90;;;;;;5108829;28;21088;-64
2023/05/06 08:44:53;;;;;;;0.50;0.30;;;19.30;99.90;;;;;;5095759;28;20750;-64
2023/05/06 08:47:20;;;;;;;0.80;0.30;;;19.30;99.90;;;;;;5108970;28;20466;-64
2023/05/06 08:49:49;;;;;;;0.60;0.32;;;19.40;99.90;;;;;;5107366;28;20420;-66
2023/05/06 08:52:16;;;;;;;0.90;0.40;;;19.60;99.90;;;;;;5103135;28;20431;-65
2023/05/06 08:54:45;;;;;;;0.80;0.40;;;19.80;99.90;;;;;;5106597;28;20563;-65
2023/05/06 08:57:13;;;;;;;1.60;0.40;;;19.90;99.90;;;;;;5110049;28;20442;-64
2023/05/06 08:59:41;;;;;;;0.60;0.40;;;19.90;99.90;;;;;;5108806;28;20432;-64
2023/05/06 09:02:10;;;;;;;0.70;0.40;;;19.40;99.90;;;;;;5107798;28;20884;-65
2023/05/06 09:04:37;;;;;;;1.00;0.30;;;19.00;99.90;;;;;;5104642;28;20481;-64
2023/05/06 09:07:05;;;;;;;1.50;0.40;;;19.00;99.90;;;;;;5112165;28;20894;-63
2023/05/06 09:09:32;;;;;;;0.60;0.40;;;19.10;99.90;;;;;;5106176;28;20510;-65
2023/05/06 09:12:01;;;;;;;0.70;0.40;;;19.20;99.90;;;;;;5111222;28;20428;-64
2023/05/06 09:14:28;;;;;;;0.80;0.50;;;19.30;99.90;;;;;;5101737;28;20430;-63
2023/05/06 09:16:55;;;;;;;0.50;0.40;;;19.40;99.90;;;;;;5110001;28;20458;-63
2023/05/06 09:19:22;;;;;;;0.70;0.40;;;19.30;99.90;;;;;;5106429;28;21025;-64
2023/05/06 09:21:51;;;;;;;9.68;3.25;;;19.30;99.90;;;;;;5109818;28;20958;-63
2023/05/06 09:24:20;;;;;;;1.65;0.50;;;19.20;99.90;;;;;;5101527;28;20546;-64
2023/05/06 09:26:47;;;;;;;1.23;0.40;;;19.20;99.90;;;;;;5112061;28;20436;-64
2023/05/06 09:29:14;;;;;;;0.70;0.40;;;19.40;99.90;;;;;;5106281;28;20771;-63
2023/05/06 09:31:43;;;;;;;1.30;0.40;;;19.50;99.90;;;;;;5105459;28;20897;-62
2023/05/06 09:34:11;;;;;;;1.58;0.40;;;19.60;99.90;;;;;;5104841;28;20488;-63
2023/05/06 09:36:38;;;;;;;0.85;0.40;;;19.80;99.90;;;;;;5112790;28;20509;-62
2023/05/06 09:39:05;;;;;;;0.77;0.50;;;19.80;99.90;;;;;;5111570;28;20457;-63
2023/05/06 09:41:34;;;;;;;0.90;0.40;;;20.00;99.90;;;;;;5100502;28;20439;-62
2023/05/06 09:44:01;;;;;;;0.60;0.50;;;20.40;99.90;;;;;;5109846;28;20430;-63
2023/05/06 09:46:28;;;;;;;0.80;0.50;;;20.50;99.90;;;;;;5102059;28;20436;-62
2023/05/06 09:48:57;;;;;;;0.60;0.40;;;20.50;99.90;;;;;;5110985;28;20440;-64
2023/05/06 09:51:26;;;;;;;0.80;0.50;;;20.60;99.90;;;;;;5112091;28;20470;-66
2023/05/06 09:53:55;;;;;;;1.30;0.50;;;20.60;99.90;;;;;;5112610;28;20424;-67
2023/05/06 09:56:23;;;;;;;1.95;0.50;;;20.70;99.90;;;;;;5099876;28;20432;-66
2023/05/06 09:58:54;;;;;;;1.70;0.40;;;20.80;99.90;;;;;;5102770;28;20517;-66
2023/05/06 10:01:21;;;;;;;0.50;0.40;;;20.80;99.90;;;;;;5041869;28;1851282;-66
2023/05/06 10:03:50;;;;;;;0.60;0.40;;;21.10;99.90;;;;;;5102434;28;20918;-65
2023/05/06 10:06:19;;;;;;;1.92;0.50;;;21.30;99.90;;;;;;5104575;28;20535;-65
2023/05/06 10:08:47;;;;;;;0.60;0.40;;;21.40;99.90;;;;;;5106966;28;20984;-64
2023/05/06 10:11:15;;;;;;;0.60;0.40;;;21.50;99.90;;;;;;5105976;28;20432;-65
2023/05/06 10:13:44;;;;;;;0.57;0.40;;;21.30;99.90;;;;;;5110458;28;20428;-66
2023/05/06 10:16:14;;;;;;;0.60;0.32;;;21.50;99.90;;;;;;5099854;28;20781;-65
2023/05/06 10:18:42;;;;;;;0.60;0.40;;;21.60;99.90;;;;;;5107671;28;20477;-62
2023/05/06 10:21:16;;;;;;;0.50;0.30;;;21.80;99.90;;;;;;5111409;28;20477;-63
2023/05/06 10:23:48;;;;;;;0.60;0.32;;;21.90;99.90;;;;;;5103561;28;20428;-63
2023/05/06 10:26:18;;;;;;;0.60;0.50;;;22.40;99.90;;;;;;5098203;28;20799;-63
2023/05/06 10:28:51;;;;;;;0.55;0.40;;;22.80;99.90;;;;;;5108285;28;20962;-62
2023/05/06 10:31:20;;;;;;;0.60;0.40;;;22.70;99.90;;;;;;5108473;28;20447;-63
2023/05/06 10:33:50;;;;;;;0.80;0.40;;;22.90;99.90;;;;;;5108345;28;20429;-61
2023/05/06 10:36:20;;;;;;;0.50;0.40;;;23.40;99.90;;;;;;5092988;28;20970;-64
2023/05/06 10:38:51;;;;;;;0.50;0.40;;;24.00;99.90;;;;;;5096140;28;20439;-63
2023/05/06 10:41:20;;;;;;;0.80;0.40;;;24.20;99.90;;;;;;5108120;28;20436;-62
2023/05/06 10:43:48;;;;;;;0.90;0.60;;;23.80;99.90;;;;;;5103358;28;20430;-62
2023/05/06 10:46:16;;;;;;;0.80;0.60;;;23.90;99.90;;;;;;5109140;28;20428;-62
2023/05/06 10:49:19;;;;;;;1.10;0.50;;;24.00;99.90;;;;;;5101603;28;21144;-62
2023/05/06 10:51:47;;;;;;;0.70;0.40;;;24.10;99.90;;;;;;5102718;28;21053;-63
2023/05/06 10:54:23;;;;;;;0.60;0.40;;;24.00;99.90;;;;;;5108924;28;21064;-61
2023/05/06 10:57:10;;;;;;;0.80;0.40;;;24.40;99.90;;;;;;5108539;28;20459;-61
2023/05/06 10:59:37;;;;;;;0.90;0.40;;;24.30;99.90;;;;;;5096283;28;20503;-63
2023/05/06 11:02:10;;;;;;;1.10;0.40;;;23.90;99.90;;;;;;5106286;28;20498;-63
2023/05/06 11:04:39;;;;;;;0.90;0.60;;;23.90;99.90;;;;;;5105708;28;20501;-61
2023/05/06 11:07:11;;;;;;;0.70;0.40;;;23.50;99.90;;;;;;5106530;28;20446;-61
2023/05/06 11:09:58;;;;;;;0.90;0.40;;;23.20;99.90;;;;;;5106075;28;20450;-62
2023/05/06 11:12:44;;;;;;;0.60;0.50;;;23.20;99.90;;;;;;5105399;28;20428;-62
2023/05/06 11:15:38;;;;;;;0.60;0.40;;;23.40;99.90;;;;;;5100507;28;20438;-61
2023/05/06 11:18:38;;;;;;;0.50;0.40;;;23.50;99.90;;;;;;5105124;28;20480;-61
2023/05/06 11:21:37;;;;;;;0.70;0.50;;;23.20;99.90;;;;;;5108422;28;20463;-61
2023/05/06 11:24:09;;;;;;;0.52;0.40;;;23.20;99.90;;;;;;5102399;28;20459;-62
2023/05/06 11:26:43;;;;;;;0.50;0.40;;;23.60;99.90;;;;;;5106644;28;20438;-62
2023/05/06 11:29:10;;;;;;;0.60;0.50;;;24.10;99.90;;;;;;5102179;28;20485;-61
2023/05/06 11:31:40;;;;;;;0.60;0.50;;;24.60;99.90;;;;;;5110096;28;20448;-62
2023/05/06 11:34:08;;;;;;;0.70;0.40;;;24.60;99.90;;;;;;5098744;28;20761;-62
2023/05/06 11:36:45;;;;;;;0.70;0.50;;;24.70;99.90;;;;;;5101744;28;20540;-62
2023/05/06 11:39:13;;;;;;;0.60;0.40;;;24.50;99.90;;;;;;5104644;28;20424;-62
2023/05/06 11:41:40;;;;;;;0.60;0.50;;;24.20;99.90;;;;;;5099621;28;20460;-61
2023/05/06 11:44:10;;;;;;;0.80;0.50;;;23.90;99.90;;;;;;5098628;28;20432;-61
2023/05/06 11:46:38;;;;;;;0.60;0.40;;;24.10;99.90;;;;;;5109193;28;20443;-63
2023/05/06 11:49:05;;;;;;;0.70;0.40;;;24.10;99.90;;;;;;5108411;28;20428;-61
2023/05/06 11:51:32;;;;;;;0.55;0.40;;;23.50;99.90;;;;;;5105009;28;20524;-62
2023/05/06 11:54:10;;;;;;;0.82;0.40;;;23.40;99.90;;;;;;5104542;28;20481;-60
2023/05/06 11:56:51;;;;;;;0.70;0.50;;;23.20;99.90;;;;;;5100373;28;20451;-61
2023/05/06 11:59:18;;;;;;;0.70;0.50;;;23.50;99.90;;;;;;5106522;28;20439;-62
2023/05/06 12:01:46;;;;;;;0.70;0.40;;;23.70;99.60;;;;;;5102990;28;20435;-62
2023/05/06 12:04:13;;;;;;;0.70;0.50;;;23.60;99.90;;;;;;5109386;28;20505;-62
2023/05/06 12:06:40;;;;;;;0.60;0.40;;;23.60;99.90;;;;;;5107993;28;20733;-62
2023/05/06 12:09:12;;;;;;;6.15;5.30;;;23.10;99.90;;;;;;5109379;28;20450;-62
2023/05/06 12:11:40;;;;;;;0.90;0.70;;;23.10;99.90;;;;;;5103716;28;20859;-62
2023/05/06 12:14:09;;;;;;;1.20;0.50;;;23.20;99.90;;;;;;5100724;28;20460;-62
2023/05/06 12:16:37;;;;;;;0.70;0.50;;;23.10;99.90;;;;;;5103059;28;20534;-62
2023/05/06 12:19:05;;;;;;;0.60;0.50;;;23.00;99.90;;;;;;5102598;28;20439;-62
2023/05/06 12:21:36;;;;;;;0.70;0.50;;;22.90;99.90;;;;;;5099485;28;20546;-62
2023/05/06 12:24:04;;;;;;;0.60;0.40;;;22.70;99.90;;;;;;5099686;28;20446;-61
2023/05/06 12:26:46;;;;;;;1.30;0.50;;;22.70;99.90;;;;;;5102922;28;20432;-60
2023/05/06 12:29:16;;;;;;;1.60;0.50;;;22.90;99.90;;;;;;5095661;28;21037;-60
2023/05/06 12:31:45;;;;;;;1.40;0.50;;;22.80;99.90;;;;;;5102086;28;20444;-60
2023/05/06 12:34:13;;;;;;;1.15;0.50;;;22.90;99.90;;;;;;5100376;28;20436;-62
2023/05/06 12:36:41;;;;;;;0.50;0.50;;;23.00;99.90;;;;;;5103545;28;20436;-60
2023/05/06 12:39:10;;;;;;;0.80;0.50;;;23.00;99.90;;;;;;5103410;28;20435;-60
2023/05/06 12:41:39;;;;;;;0.60;0.50;;;23.10;99.90;;;;;;5108268;28;21006;-60
2023/05/06 12:44:33;;;;;;;1.03;0.50;;;23.00;99.90;;;;;;5111485;28;20855;-60
2023/05/06 12:47:02;;;;;;;1.10;0.50;;;23.10;99.90;;;;;;5094457;28;20473;-60
2023/05/06 12:49:47;;;;;;;0.70;0.50;;;22.90;99.90;;;;;;5106252;28;20436;-60
2023/05/06 12:52:14;;;;;;;0.80;0.50;;;22.80;99.90;;;;;;5105534;28;20446;-61
2023/05/06 12:54:41;;;;;;;0.73;0.50;;;22.80;99.90;;;;;;5108643;28;20428;-62